Time;durP1;ratioP1;P1;durP2;ratioP2;P2;SDS_P1;SDS_P2;PMS_P1;PMS_P2;Temp;Humidity;BMP_temperature;BMP_pressure;BME280_temperature;BME280_humidity;BME280_pressure;Samples;Min_cycle;Max_cycle;Signal;HPM_P1;HPM_P2
2021/07/06 00:01:05;;;;;;;1.45;1.10;;;;;;;20.40;70.22;99382.97;5042014;28;20482;-82
2021/07/06 00:03:33;;;;;;;2.47;1.30;;;;;;;20.48;69.96;99390.22;5041884;28;20474;-82
2021/07/06 00:06:01;;;;;;;2.00;1.25;;;;;;;20.43;70.15;99387.78;5058863;28;20057;-81
2021/07/06 00:08:28;;;;;;;2.85;1.10;;;;;;;20.54;69.54;99388.56;5061233;28;20067;-81
2021/07/06 00:10:56;;;;;;;2.35;1.10;;;;;;;20.50;69.52;99382.13;5061668;28;20183;-83
2021/07/06 00:13:23;;;;;;;2.67;1.30;;;;;;;20.52;69.43;99374.03;5060929;28;20414;-82
2021/07/06 00:15:50;;;;;;;2.42;1.10;;;;;;;20.60;68.99;99369.16;5060427;28;20060;-82
2021/07/06 00:18:17;;;;;;;1.80;1.00;;;;;;;20.68;68.66;99377.25;5061334;28;20049;-82
2021/07/06 00:20:46;;;;;;;4.13;1.20;;;;;;;20.59;68.52;99374.03;5062242;28;20056;-83
2021/07/06 00:23:13;;;;;;;2.03;1.02;;;;;;;20.47;68.51;99365.94;5061767;28;20060;-83
2021/07/06 00:25:42;;;;;;;3.60;1.10;;;;;;;20.60;68.25;99370.00;5060932;28;20045;-82
2021/07/06 00:28:11;;;;;;;1.60;1.13;;;;;;;20.59;68.00;99368.38;5034946;28;20077;-82
2021/07/06 00:30:39;;;;;;;1.80;1.00;;;;;;;20.53;67.66;99357.84;5031996;28;20064;-82
2021/07/06 00:33:06;;;;;;;5.68;1.23;;;;;;;20.36;68.61;99356.69;5033048;28;20050;-82
2021/07/06 00:35:34;;;;;;;2.08;1.10;;;;;;;20.57;67.79;99350.97;5056177;28;20071;-83
2021/07/06 00:38:02;;;;;;;1.63;1.02;;;;;;;20.50;67.38;99345.34;5060811;28;20057;-83
2021/07/06 00:40:30;;;;;;;1.90;1.08;;;;;;;20.41;67.40;99350.63;5059857;28;20065;-82
2021/07/06 00:42:59;;;;;;;1.80;0.82;;;;;;;20.45;67.11;99363.56;5059814;28;20052;-82
2021/07/06 00:45:28;;;;;;;3.67;0.88;;;;;;;20.39;67.14;99353.88;5060614;28;20045;-82
2021/07/06 00:47:59;;;;;;;1.90;1.07;;;;;;;20.31;67.42;99357.13;5060182;28;20057;-82
2021/07/06 00:50:28;;;;;;;3.78;1.00;;;;;;;20.43;66.82;99365.97;5060376;28;20060;-82
2021/07/06 00:52:55;;;;;;;1.23;0.90;;;;;;;20.49;66.79;99366.34;5060632;28;20060;-82
2021/07/06 00:55:24;;;;;;;1.90;0.80;;;;;;;20.39;67.09;99356.69;5061261;28;20071;-82
2021/07/06 01:11:25;;;;;;;1.40;0.95;;;;;;;20.54;65.41;99331.19;5059486;28;20068;-82
2021/07/06 01:13:56;;;;;;;1.63;1.05;;;;;;;20.53;65.57;99324.72;5058339;28;20107;-82
2021/07/06 01:16:23;;;;;;;2.08;0.90;;;;;;;20.65;64.96;99329.16;5060089;28;20120;-82
2021/07/06 01:18:50;;;;;;;1.27;0.90;;;;;;;20.61;64.89;99328.34;5060237;28;20049;-81
2021/07/06 01:21:24;;;;;;;1.23;0.70;;;;;;;20.48;64.88;99333.63;5059804;28;20413;-82
2021/07/06 01:40:49;;;;;;;1.67;1.02;;;;;;;20.61;63.78;99309.34;5053360;28;20044;-82
2021/07/06 01:43:16;;;;;;;1.70;0.68;;;;;;;20.66;63.45;99294.78;5051418;28;20057;-82
2021/07/06 01:45:44;;;;;;;1.08;0.70;;;;;;;20.61;63.51;99298.03;5059679;28;20053;-82
2021/07/06 01:48:23;;;;;;;1.42;0.75;;;;;;;20.77;62.92;99280.59;5060626;28;20053;-82
2021/07/06 01:50:50;;;;;;;2.65;0.90;;;;;;;20.80;62.64;99278.94;5060511;28;20418;-82
2021/07/06 01:57:18;;;;;;;1.65;0.90;;;;;;;20.83;62.80;99280.94;5050376;28;20044;-82
2021/07/06 01:59:47;;;;;;;1.67;0.80;;;;;;;20.85;62.64;99270.84;5043414;28;20049;-82
2021/07/06 02:12:23;;;;;;;1.67;0.85;;;;;;;21.03;61.93;99261.41;5063050;28;20064;-82
2021/07/06 02:31:44;;;;;;;3.38;1.02;;;;;;;20.99;63.63;99244.44;5067658;28;20421;-82
2021/07/06 02:34:11;;;;;;;1.80;0.90;;;;;;;20.98;63.67;99242.84;5035263;28;20046;-82
2021/07/06 02:36:39;;;;;;;1.88;0.80;;;;;;;20.97;63.51;99235.56;5042679;28;20430;-82
2021/07/06 02:39:06;;;;;;;1.92;1.10;;;;;;;20.95;63.62;99232.34;5056145;28;20072;-82
2021/07/06 02:41:33;;;;;;;1.83;1.00;;;;;;;20.94;64.23;99235.59;5062283;28;20044;-81
2021/07/06 02:44:01;;;;;;;2.03;1.00;;;;;;;20.92;63.60;99238.84;5062112;28;20063;-83
2021/07/06 02:46:28;;;;;;;1.33;0.80;;;;;;;20.93;63.62;99236.81;5060252;28;20041;-83
2021/07/06 02:48:56;;;;;;;3.08;1.05;;;;;;;20.88;64.50;99233.19;5061249;28;20053;-82
2021/07/06 02:51:27;;;;;;;1.63;1.08;;;;;;;20.92;64.29;99227.50;5060993;28;20049;-82
2021/07/06 02:53:54;;;;;;;3.05;1.05;;;;;;;20.89;63.44;99228.31;5060936;28;20457;-81
2021/07/06 02:56:21;;;;;;;2.42;0.90;;;;;;;20.88;62.65;99215.41;5061874;28;20451;-82
2021/07/06 02:58:49;;;;;;;3.55;0.90;;;;;;;20.78;62.79;99231.25;5062554;28;20101;-82
2021/07/06 03:01:16;;;;;;;2.00;1.15;;;;;;;20.80;62.50;99230.81;5062854;28;20064;-83
2021/07/06 03:03:44;;;;;;;2.75;0.85;;;;;;;20.81;62.46;99229.59;5059197;28;20052;-82
2021/07/06 03:06:13;;;;;;;2.75;0.95;;;;;;;20.68;62.59;99238.59;5058532;28;20383;-82
2021/07/06 03:08:40;;;;;;;3.10;1.30;;;;;;;20.74;63.01;99236.13;5059949;28;20552;-82
2021/07/06 03:11:07;;;;;;;2.53;1.00;;;;;;;20.82;62.50;99222.72;5058914;28;20053;-82
2021/07/06 03:13:35;;;;;;;3.05;1.00;;;;;;;20.83;62.44;99222.31;5058460;28;20076;-82
2021/07/06 03:16:06;;;;;;;3.67;0.95;;;;;;;20.90;62.15;99212.19;5060432;28;20064;-82
2021/07/06 03:18:33;;;;;;;3.05;1.40;;;;;;;20.86;62.15;99206.53;5059985;28;20053;-82
2021/07/06 03:21:00;;;;;;;2.15;0.90;;;;;;;20.92;62.10;99199.22;5059529;28;20057;-82
2021/07/06 03:23:30;;;;;;;2.55;1.05;;;;;;;20.91;61.80;99203.25;5058698;28;20048;-82
2021/07/06 03:25:58;;;;;;;3.40;1.10;;;;;;;20.88;61.88;99212.59;5059050;28;20053;-81
2021/07/06 03:28:26;;;;;;;2.67;1.10;;;;;;;20.92;61.60;99213.34;5059212;28;20363;-82
2021/07/06 03:30:53;;;;;;;2.05;1.10;;;;;;;20.95;61.56;99218.19;5059348;28;20056;-82
2021/07/06 03:33:20;;;;;;;4.43;0.90;;;;;;;20.89;61.59;99211.34;5059334;28;20052;-83
2021/07/06 03:35:48;;;;;;;3.67;0.90;;;;;;;20.92;61.21;99204.88;5059234;28;20094;-83
2021/07/06 03:38:15;;;;;;;1.95;0.95;;;;;;;21.01;60.58;99201.56;5058533;28;20056;-82
2021/07/06 03:40:46;;;;;;;2.00;0.90;;;;;;;21.05;60.23;99205.97;5058687;28;20358;-83
2021/07/06 03:43:13;;;;;;;2.47;0.90;;;;;;;21.08;60.47;99207.16;5057823;28;20053;-82
2021/07/06 03:45:40;;;;;;;4.47;1.15;;;;;;;21.20;59.96;99208.69;5058363;28;20053;-83
2021/07/06 03:48:07;;;;;;;2.97;0.90;;;;;;;21.11;60.38;99200.66;5058026;28;20057;-82
2021/07/06 03:50:35;;;;;;;4.03;0.90;;;;;;;21.13;60.50;99195.41;5058237;28;20057;-82
2021/07/06 03:53:04;;;;;;;2.45;1.48;;;;;;;21.25;59.49;99189.22;5057486;28;20057;-82
2021/07/06 03:55:32;;;;;;;2.45;1.08;;;;;;;21.32;59.40;99185.53;5056955;28;20064;-82
2021/07/06 03:58:01;;;;;;;1.80;0.90;;;;;;;21.30;58.98;99182.28;5057864;28;20053;-82
2021/07/06 04:00:31;;;;;;;2.70;1.48;;;;;;;21.38;59.12;99186.69;5057187;28;20060;-82
2021/07/06 04:02:58;;;;;;;2.65;1.65;;;;;;;21.47;58.59;99184.16;5050619;28;20056;-82
2021/07/06 04:05:26;;;;;;;3.47;1.10;;;;;;;21.55;58.60;99182.06;5039208;28;20058;-82
2021/07/06 04:07:53;;;;;;;3.15;0.90;;;;;;;21.43;58.42;99169.25;5037186;28;20049;-83
2021/07/06 04:10:22;;;;;;;2.30;1.05;;;;;;;21.71;57.97;99186.34;5037768;28;20057;-83
2021/07/06 04:12:50;;;;;;;1.95;0.95;;;;;;;21.77;57.71;99179.81;5037471;28;20049;-82
2021/07/06 04:15:19;;;;;;;2.38;1.13;;;;;;;21.79;57.97;99183.03;5052725;28;20385;-83
2021/07/06 04:17:47;;;;;;;2.38;0.85;;;;;;;21.86;57.21;99188.63;5055625;28;20429;-82
2021/07/06 04:20:16;;;;;;;2.72;1.00;;;;;;;21.95;57.27;99187.31;5057965;28;20060;-83
2021/07/06 04:22:45;;;;;;;3.70;1.00;;;;;;;22.04;56.97;99187.59;5058162;28;20053;-82
2021/07/06 04:25:13;;;;;;;2.10;1.00;;;;;;;22.02;57.36;99179.50;5058573;28;20053;-82
2021/07/06 04:27:41;;;;;;;2.65;1.20;;;;;;;22.07;57.47;99172.59;5057979;28;20056;-83
2021/07/06 04:30:10;;;;;;;2.80;1.13;;;;;;;22.07;57.63;99172.59;5056864;28;20073;-82
2021/07/06 04:32:39;;;;;;;2.27;1.00;;;;;;;22.10;57.32;99163.22;5057070;28;20064;-83
2021/07/06 04:35:07;;;;;;;1.95;1.05;;;;;;;22.07;57.50;99167.72;5056983;28;21026;-83
2021/07/06 04:37:34;;;;;;;2.58;1.00;;;;;;;22.13;57.47;99165.19;5056948;28;20060;-83
2021/07/06 04:40:02;;;;;;;2.25;1.00;;;;;;;22.02;57.84;99164.53;5058715;28;20053;-83
2021/07/06 04:42:29;;;;;;;3.13;1.38;;;;;;;21.91;58.23;99161.03;5057492;28;20053;-83
2021/07/06 04:44:57;;;;;;;3.72;1.30;;;;;;;22.01;57.86;99158.06;5057437;28;20494;-82
2021/07/06 04:47:24;;;;;;;1.60;1.00;;;;;;;21.99;58.09;99149.19;5057624;28;20056;-82
2021/07/06 04:49:53;;;;;;;3.63;0.98;;;;;;;22.10;57.77;99151.88;5057506;28;20053;-82
2021/07/06 04:52:21;;;;;;;4.18;1.08;;;;;;;22.16;57.44;99143.69;5057896;28;20053;-83
2021/07/06 04:54:48;;;;;;;4.35;1.27;;;;;;;22.21;57.26;99141.16;5058336;28;20405;-82
2021/07/06 04:57:21;;;;;;;1.88;1.10;;;;;;;22.18;56.71;99125.03;5058702;28;20056;-83
2021/07/06 04:59:48;;;;;;;2.10;1.25;;;;;;;22.33;56.69;99130.53;5057424;28;20402;-82
2021/07/06 05:02:16;;;;;;;2.45;1.08;;;;;;;22.44;55.98;99122.66;5056836;28;20059;-83
2021/07/06 05:04:43;;;;;;;2.60;1.10;;;;;;;22.50;56.19;99126.59;5057146;28;20049;-83
2021/07/06 05:07:12;;;;;;;3.17;1.10;;;;;;;22.45;56.26;99127.91;5057224;28;20052;-83
2021/07/06 05:09:40;;;;;;;2.70;1.20;;;;;;;22.42;56.40;99110.91;5057131;28;20064;-83
2021/07/06 05:12:08;;;;;;;3.85;1.30;;;;;;;22.52;55.88;99112.00;5050275;28;20056;-82
2021/07/06 05:14:35;;;;;;;3.83;1.13;;;;;;;22.26;55.91;99122.94;5054966;28;20075;-83
2021/07/06 05:17:03;;;;;;;1.92;1.05;;;;;;;22.40;55.71;99125.53;5057158;28;20057;-82
2021/07/06 05:19:30;;;;;;;3.22;1.10;;;;;;;22.65;54.85;99142.19;5056735;28;20060;-82
2021/07/06 05:21:58;;;;;;;3.85;1.20;;;;;;;22.64;54.94;99142.63;5056877;28;20064;-83
2021/07/06 05:24:27;;;;;;;5.45;1.63;;;;;;;22.48;55.46;99163.13;5055757;28;20048;-82
2021/07/06 05:26:54;;;;;;;1.88;0.90;;;;;;;22.67;54.73;99172.97;5056493;28;20509;-83
2021/07/06 05:29:21;;;;;;;2.13;1.10;;;;;;;22.66;54.63;99180.69;5058802;28;20044;-82
2021/07/06 05:31:48;;;;;;;2.35;1.20;;;;;;;22.69;55.04;99194.00;5060500;28;20056;-82
2021/07/06 05:34:16;;;;;;;1.52;0.82;;;;;;;22.86;54.70;99197.00;5061395;28;20050;-82
2021/07/06 05:36:44;;;;;;;3.63;1.13;;;;;;;22.96;55.13;99201.72;5062371;28;20057;-83
2021/07/06 05:39:12;;;;;;;2.58;1.00;;;;;;;22.94;55.98;99238.28;5061943;28;20048;-81
2021/07/06 05:41:40;;;;;;;2.58;1.00;;;;;;;22.80;57.24;99232.81;5058848;28;20064;-83
2021/07/06 05:44:09;;;;;;;1.60;1.00;;;;;;;22.61;57.30;99245.66;5060952;28;20063;-83
2021/07/06 05:46:36;;;;;;;9.43;1.58;;;;;;;22.25;59.74;99241.25;5060251;28;20053;-83
2021/07/06 05:49:04;;;;;;;3.40;1.20;;;;;;;21.83;60.98;99274.50;5051934;28;20053;-81
2021/07/06 05:51:31;;;;;;;2.63;1.20;;;;;;;21.32;63.36;99256.31;5062161;28;20061;-79
2021/07/06 05:53:59;;;;;;;2.10;1.20;;;;;;;21.04;65.20;99278.00;5062349;28;20057;-80
2021/07/06 05:56:26;;;;;;;2.10;1.20;;;;;;;20.98;65.05;99316.44;5064141;28;20398;-83
2021/07/06 05:58:55;;;;;;;3.67;1.30;;;;;;;21.43;64.06;99312.94;5067003;28;20057;-83
2021/07/06 06:01:23;;;;;;;3.00;1.20;;;;;;;21.44;63.95;99314.50;5066388;28;20060;-83
2021/07/06 06:03:50;;;;;;;2.08;1.17;;;;;;;21.63;63.40;99316.81;5066606;28;20048;-83
2021/07/06 06:06:18;;;;;;;3.35;1.50;;;;;;;21.51;64.78;99344.84;5063957;28;20060;-82
2021/07/06 06:08:45;;;;;;;2.70;1.50;;;;;;;21.45;64.02;99325.44;5053997;28;20063;-83
2021/07/06 06:11:13;;;;;;;2.13;1.40;;;;;;;21.29;65.53;99336.44;5062277;28;20055;-82
2021/07/06 06:13:40;;;;;;;3.70;1.67;;;;;;;21.20;66.20;99353.91;5061767;28;20060;-83
2021/07/06 06:16:09;;;;;;;4.25;1.50;;;;;;;20.91;67.67;99347.59;5061662;28;20063;-81
2021/07/06 06:18:37;;;;;;;2.53;1.25;;;;;;;20.55;68.18;99352.59;5060754;28;20045;-82
2021/07/06 06:21:05;;;;;;;2.85;1.50;;;;;;;20.78;68.25;99377.59;5061226;28;20055;-82
2021/07/06 06:23:33;;;;;;;5.50;1.90;;;;;;;20.70;69.29;99367.53;5061002;28;20045;-83
2021/07/06 06:26:03;;;;;;;2.78;1.60;;;;;;;20.37;71.47;99361.13;5060990;28;20418;-81
2021/07/06 06:28:31;;;;;;;4.07;1.67;;;;;;;20.27;71.26;99380.56;5061061;28;20056;-82
2021/07/06 06:30:58;;;;;;;2.63;1.50;;;;;;;20.13;72.12;99386.22;5062335;28;20064;-81
2021/07/06 06:33:27;;;;;;;3.70;1.50;;;;;;;20.14;72.38;99376.56;5062447;28;20064;-81
2021/07/06 06:35:54;;;;;;;4.40;1.52;;;;;;;20.26;71.56;99376.13;5061647;28;20056;-80
2021/07/06 06:38:21;;;;;;;3.70;1.48;;;;;;;20.44;71.69;99375.28;5061226;28;20053;-81
2021/07/06 06:40:48;;;;;;;2.67;1.63;;;;;;;20.24;71.98;99355.94;5060424;28;20053;-81
2021/07/06 06:43:16;;;;;;;2.72;1.65;;;;;;;20.42;71.26;99357.91;5060812;28;20063;-81
2021/07/06 06:45:45;;;;;;;3.00;1.55;;;;;;;20.42;71.50;99352.25;5060243;28;20055;-81
2021/07/06 06:48:13;;;;;;;1.70;1.40;;;;;;;20.55;70.77;99361.09;5059580;28;20064;-82
2021/07/06 06:50:41;;;;;;;3.88;1.90;;;;;;;20.44;71.23;99342.13;5057115;28;20049;-82
2021/07/06 06:53:09;;;;;;;3.85;1.70;;;;;;;20.39;71.46;99355.88;5060444;28;20059;-81
2021/07/06 06:55:36;;;;;;;3.92;1.50;;;;;;;20.41;71.81;99342.97;5052122;28;20053;-80
2021/07/06 06:58:11;;;;;;;5.32;2.00;;;;;;;20.57;71.25;99341.69;5054260;28;20370;-81
2021/07/06 07:00:41;;;;;;;5.88;2.03;;;;;;;20.61;71.21;99343.31;5049056;28;20050;-81
2021/07/06 07:03:09;;;;;;;2.50;1.30;;;;;;;20.57;71.12;99336.03;5050303;28;20050;-81
2021/07/06 07:05:36;;;;;;;3.28;1.70;;;;;;;20.37;72.32;99333.69;5043020;28;20063;-81
2021/07/06 07:08:05;;;;;;;3.08;1.77;;;;;;;20.43;73.14;99311.41;5051245;28;20071;-80
2021/07/06 07:10:37;;;;;;;3.17;1.67;;;;;;;20.30;73.76;99290.47;5048093;28;20057;-82
2021/07/06 07:19:49;;;;;;;2.60;1.50;;;;;;;19.93;74.05;99269.16;3763378;28;21711;-81
2021/07/06 07:29:04;;;;;;;3.90;1.60;;;;;;;19.99;74.84;99279.66;3867756;28;21752;-81
2021/07/06 07:31:31;;;;;;;3.13;1.55;;;;;;;19.95;74.63;99292.16;5038502;28;20430;-81
2021/07/06 07:33:59;;;;;;;3.00;1.63;;;;;;;19.88;75.84;99304.28;5046143;28;20080;-81
2021/07/06 07:36:27;;;;;;;3.67;1.80;;;;;;;19.57;77.12;99303.91;5038099;28;20057;-80
2021/07/06 07:38:55;;;;;;;4.28;1.67;;;;;;;19.50;77.82;99320.03;5053391;28;20181;-81
2021/07/06 07:41:23;;;;;;;2.55;1.60;;;;;;;19.61;77.33;99313.19;5043031;28;20489;-81
2021/07/06 07:43:53;;;;;;;11.63;2.40;;;;;;;19.09;81.87;99320.41;5055989;28;20476;-81
2021/07/06 07:46:22;;;;;;;2.78;1.80;;;;;;;18.90;83.23;99316.75;5047335;28;20060;-81
2021/07/06 07:48:50;;;;;;;5.03;1.85;;;;;;;18.92;81.77;99274.84;5048913;28;20049;-81
2021/07/06 07:51:18;;;;;;;3.30;2.03;;;;;;;18.76;86.41;99227.22;5040025;28;20390;-81
2021/07/06 07:53:46;;;;;;;4.43;2.00;;;;;;;18.89;84.88;99170.44;5036760;28;20049;-81
2021/07/06 08:10:31;;;;;;;4.95;2.42;;;;;;;19.44;78.39;99142.56;5061835;28;20051;-81
2021/07/06 08:12:59;;;;;;;3.17;1.50;;;;;;;19.53;78.11;99144.13;5049511;28;20045;-82
2021/07/06 08:22:11;;;;;;;2.88;1.75;;;;;;;19.77;76.89;99173.53;5058531;28;20052;-82
2021/07/06 08:34:09;;;;;;;2.00;1.45;;;;;;;20.46;73.75;99160.69;4929195;28;20061;-80
2021/07/06 08:36:37;;;;;;;2.95;1.35;;;;;;;20.43;72.79;99153.84;5048887;28;20075;-82
2021/07/06 08:39:04;;;;;;;2.15;1.60;;;;;;;20.78;72.89;99145.53;5059397;28;20473;-81
2021/07/06 08:41:32;;;;;;;3.22;1.58;;;;;;;21.04;71.25;99121.44;5058481;28;20052;-82
2021/07/06 08:43:59;;;;;;;2.83;1.30;;;;;;;21.04;71.07;99132.75;5057081;28;20093;-82
2021/07/06 08:46:30;;;;;;;1.70;1.15;;;;;;;21.13;70.71;99093.47;5056776;28;20059;-82
2021/07/06 08:48:59;;;;;;;2.28;1.10;;;;;;;21.34;70.03;99111.47;5058100;28;20489;-82
2021/07/06 08:51:26;;;;;;;2.20;1.48;;;;;;;21.35;68.94;99127.22;5057926;28;20056;-81
2021/07/06 08:53:54;;;;;;;2.00;1.20;;;;;;;21.35;69.37;99125.19;5058751;28;20481;-82
2021/07/06 08:56:21;;;;;;;1.85;1.08;;;;;;;21.66;68.44;99128.13;5058063;28;20049;-82
2021/07/06 08:58:49;;;;;;;1.92;1.20;;;;;;;21.85;67.26;99129.50;5059089;28;20049;-82
2021/07/06 09:01:16;;;;;;;1.63;1.00;;;;;;;22.03;65.79;99137.78;5059009;28;20053;-82
2021/07/06 09:03:54;;;;;;;1.55;0.95;;;;;;;22.56;65.12;99139.09;5059520;28;20057;-81
2021/07/06 09:06:23;;;;;;;1.40;0.93;;;;;;;22.87;62.59;99158.88;5059927;28;20057;-81
2021/07/06 09:08:53;;;;;;;1.52;1.00;;;;;;;23.21;62.18;99155.09;5050704;28;20499;-81
2021/07/06 09:11:21;;;;;;;2.05;0.95;;;;;;;23.26;62.27;99172.44;5048326;28;20048;-82
2021/07/06 09:13:49;;;;;;;2.28;1.08;;;;;;;23.45;60.99;99175.75;5055627;28;20379;-81
2021/07/06 09:16:21;;;;;;;1.70;1.13;;;;;;;23.91;59.08;99174.09;5059217;28;20132;-82
2021/07/06 09:18:49;;;;;;;1.50;1.10;;;;;;;24.22;58.78;99177.50;5057582;28;20379;-81
2021/07/06 09:21:18;;;;;;;1.60;1.00;;;;;;;24.96;55.98;99201.88;5059721;28;20053;-80
2021/07/06 09:23:48;;;;;;;1.73;0.90;;;;;;;25.21;55.70;99194.78;5055757;28;20482;-81
2021/07/06 09:26:21;;;;;;;2.58;0.90;;;;;;;25.29;54.55;99216.97;5057240;28;20071;-80
2021/07/06 09:28:49;;;;;;;2.00;1.05;;;;;;;25.75;53.69;99211.28;5057993;28;20057;-81
2021/07/06 09:31:27;;;;;;;1.95;1.00;;;;;;;26.30;50.46;99205.69;5058826;28;20493;-81
2021/07/06 09:33:57;;;;;;;2.30;1.08;;;;;;;26.40;50.94;99223.75;5045145;28;20048;-81
2021/07/06 09:36:34;;;;;;;1.40;1.00;;;;;;;26.67;49.31;99231.94;5054948;28;20048;-81
2021/07/06 09:39:05;;;;;;;1.50;1.05;;;;;;;25.60;52.25;99252.81;5054895;28;20127;-81
2021/07/06 09:41:33;;;;;;;2.28;1.02;;;;;;;25.36;53.05;99247.34;5058567;28;20063;-81
2021/07/06 09:44:17;;;;;;;2.10;0.82;;;;;;;25.03;52.41;99210.25;5055192;28;20068;-81
2021/07/06 09:46:49;;;;;;;1.30;0.90;;;;;;;24.79;53.82;99221.00;5048444;28;20041;-82
2021/07/06 09:49:19;;;;;;;1.55;0.90;;;;;;;24.71;53.51;99226.06;5053393;28;20379;-82
2021/07/06 09:51:48;;;;;;;2.58;0.80;;;;;;;24.83;53.23;99232.31;5057678;28;20517;-81
2021/07/06 09:54:31;;;;;;;1.15;0.60;;;;;;;24.88;52.45;99229.75;5039620;28;20482;-80
2021/07/06 09:57:20;;;;;;;1.08;0.68;;;;;;;24.01;53.52;99246.22;5052551;28;20053;-81
2021/07/06 10:00:03;;;;;;;1.65;0.90;;;;;;;24.46;52.57;99242.84;5055669;28;20056;-81
2021/07/06 10:02:32;;;;;;;1.10;0.60;;;;;;;24.71;51.77;99253.72;5044472;28;20029;-81
2021/07/06 10:05:03;;;;;;;1.63;0.70;;;;;;;24.37;53.22;99251.19;5049875;28;20069;-82
2021/07/06 10:07:35;;;;;;;1.20;0.73;;;;;;;24.42;53.44;99259.19;5040139;28;20049;-82
2021/07/06 10:10:08;;;;;;;1.77;0.80;;;;;;;25.06;51.35;99283.44;5051008;28;20057;-80
2021/07/06 10:12:37;;;;;;;1.65;1.10;;;;;;;24.68;52.87;99255.41;5049594;28;20072;-80
2021/07/06 10:15:06;;;;;;;2.42;0.90;;;;;;;24.95;52.28;99257.25;5049919;28;20132;-80
2021/07/06 10:17:36;;;;;;;1.30;0.70;;;;;;;24.85;52.35;99269.69;5056660;28;20060;-79
2021/07/06 10:20:05;;;;;;;1.52;0.60;;;;;;;24.21;53.47;99280.38;5048224;28;20049;-80
2021/07/06 10:22:33;;;;;;;3.00;1.05;;;;;;;24.18;53.54;99284.91;5052139;28;20178;-80
2021/07/06 10:25:02;;;;;;;1.00;0.80;;;;;;;24.51;53.07;99307.84;5049781;28;20056;-80
2021/07/06 10:27:32;;;;;;;1.30;0.70;;;;;;;24.34;53.67;99301.25;5051376;28;20359;-81
2021/07/06 10:30:07;;;;;;;1.27;0.70;;;;;;;24.44;53.62;99296.56;5057214;28;20060;-80
2021/07/06 10:32:39;;;;;;;1.10;0.70;;;;;;;24.03;54.54;99301.44;5057417;28;20049;-80
2021/07/06 10:35:09;;;;;;;1.65;0.80;;;;;;;23.51;56.70;99305.56;5063595;28;20064;-80
2021/07/06 10:37:39;;;;;;;1.30;0.70;;;;;;;23.42;56.67;99288.25;5045205;28;20056;-80
2021/07/06 10:40:21;;;;;;;2.42;0.88;;;;;;;23.66;56.31;99293.94;5038600;28;20057;-80
2021/07/06 10:42:51;;;;;;;1.08;0.60;;;;;;;23.55;55.84;99310.41;5044304;28;20056;-80
2021/07/06 10:45:21;;;;;;;1.65;0.82;;;;;;;23.50;55.73;99303.97;5048597;28;20053;-80
2021/07/06 10:47:53;;;;;;;1.40;0.73;;;;;;;23.36;55.74;99320.44;5047991;28;20056;-80
2021/07/06 10:50:46;;;;;;;2.15;0.80;;;;;;;23.53;55.71;99313.66;5056478;28;20048;-80
2021/07/06 10:53:18;;;;;;;1.85;0.90;;;;;;;23.79;55.48;99326.28;5049749;28;20052;-78
2021/07/06 10:55:47;;;;;;;1.20;0.90;;;;;;;24.16;54.93;99315.03;5056324;28;20045;-79
2021/07/06 10:58:54;;;;;;;2.20;1.15;;;;;;;24.09;55.06;99333.84;5057922;28;20485;-79
2021/07/06 11:01:53;;;;;;;1.02;0.73;;;;;;;23.77;55.67;99323.06;4975806;28;20055;-82
2021/07/06 11:05:11;;;;;;;1.70;1.00;;;;;;;24.89;52.32;99333.88;4959616;29;20055;-82
2021/07/06 11:07:50;;;;;;;2.08;0.85;;;;;;;25.74;50.32;99320.91;5055805;28;20049;-81
2021/07/06 11:10:33;;;;;;;2.28;0.85;;;;;;;25.51;51.46;99330.44;5059398;28;20060;-81
2021/07/06 11:13:30;;;;;;;2.17;1.20;;;;;;;26.06;48.54;99325.81;5063584;28;20099;-81
2021/07/06 11:16:00;;;;;;;1.38;1.27;;;;;;;27.65;45.32;99324.78;5060532;28;20055;-81
2021/07/06 11:18:56;;;;;;;3.20;1.42;;;;;;;30.17;38.71;99318.88;5057961;28;20091;-82
2021/07/06 11:21:37;;;;;;;2.15;1.30;;;;;;;31.89;35.87;99302.13;5055292;28;20044;-83
2021/07/06 11:24:17;;;;;;;3.13;1.23;;;;;;;30.34;37.91;99321.00;5049684;28;20053;-82
2021/07/06 11:26:47;;;;;;;1.75;0.73;;;;;;;28.64;41.61;99307.44;5062854;28;20049;-82
2021/07/06 11:29:25;;;;;;;1.48;1.05;;;;;;;29.29;40.94;99314.34;5049096;28;20063;-81
2021/07/06 11:32:13;;;;;;;1.50;0.73;;;;;;;28.87;40.47;99300.41;5040043;28;20053;-82
2021/07/06 11:34:41;;;;;;;1.38;0.80;;;;;;;27.94;40.66;99319.72;5053511;28;20049;-82
2021/07/06 11:37:11;;;;;;;2.03;1.20;;;;;;;27.61;40.64;99318.38;5057202;28;20041;-81
2021/07/06 11:39:38;;;;;;;1.45;0.70;;;;;;;26.69;43.89;99318.78;5056608;28;20412;-82
2021/07/06 11:42:08;;;;;;;2.72;1.30;;;;;;;28.19;40.18;99318.03;5058540;28;20128;-82
2021/07/06 11:44:35;;;;;;;1.33;1.13;;;;;;;29.37;38.08;99324.25;5057797;28;20053;-82
2021/07/06 11:47:10;;;;;;;1.55;0.80;;;;;;;30.59;35.98;99319.03;5056110;28;20052;-82
2021/07/06 11:49:38;;;;;;;2.97;1.08;;;;;;;30.25;35.81;99332.44;5050359;28;20053;-83
2021/07/06 11:52:06;;;;;;;1.75;0.98;;;;;;;29.90;36.38;99294.59;5059925;28;20068;-85
2021/07/06 11:54:34;;;;;;;2.13;1.05;;;;;;;30.53;35.22;99309.47;5059765;28;20059;-83
2021/07/06 11:57:08;;;;;;;1.90;1.13;;;;;;;29.83;34.92;99333.03;5061511;28;20060;-83
2021/07/06 11:59:37;;;;;;;1.90;0.90;;;;;;;28.42;38.47;99302.47;5057381;28;20053;-84
2021/07/06 12:02:06;;;;;;;2.13;1.08;;;;;;;28.63;37.76;99300.13;5059357;28;20056;-82
2021/07/06 12:04:34;;;;;;;2.88;0.80;;;;;;;27.77;37.39;99311.72;5064825;28;20061;-81
2021/07/06 12:07:06;;;;;;;1.65;0.90;;;;;;;27.51;38.33;99311.78;5060209;28;20143;-81
2021/07/06 12:09:34;;;;;;;1.70;1.55;;;;;;;29.42;35.12;99315.03;5059382;28;20060;-82
2021/07/06 12:12:11;;;;;;;1.55;1.35;;;;;;;30.72;32.70;99313.94;5055530;28;20064;-84
2021/07/06 12:14:44;;;;;;;2.25;1.20;;;;;;;31.18;31.26;99336.03;5061793;28;20064;-82
2021/07/06 12:17:12;;;;;;;2.22;1.30;;;;;;;31.43;30.81;99326.22;5046082;28;20051;-83
2021/07/06 12:19:40;;;;;;;2.80;1.00;;;;;;;30.42;31.97;99360.91;5064349;28;20063;-83
2021/07/06 12:22:08;;;;;;;1.73;0.70;;;;;;;28.71;32.95;99322.28;5059736;28;20057;-83
2021/07/06 12:24:35;;;;;;;4.70;0.80;;;;;;;28.22;34.25;99347.81;5051092;28;20053;-82
2021/07/06 12:27:03;;;;;;;1.30;0.68;;;;;;;27.76;34.78;99342.41;5060834;28;20048;-82
2021/07/06 12:29:34;;;;;;;1.63;0.70;;;;;;;27.68;35.93;99347.56;5050570;28;20064;-82
2021/07/06 12:32:03;;;;;;;3.40;0.73;;;;;;;28.23;34.14;99355.16;5058872;28;20053;-82
2021/07/06 12:34:38;;;;;;;2.28;0.70;;;;;;;28.20;34.16;99359.75;5060369;28;20057;-83
2021/07/06 12:37:08;;;;;;;2.55;0.75;;;;;;;27.65;33.04;99364.84;5057763;28;20045;-83
2021/07/06 12:39:36;;;;;;;1.90;0.50;;;;;;;27.14;33.51;99360.69;5057954;28;20049;-84
2021/07/06 12:42:06;;;;;;;2.15;1.10;;;;;;;28.43;31.89;99354.84;5058496;28;20114;-84
2021/07/06 12:44:37;;;;;;;2.38;0.98;;;;;;;29.22;31.28;99349.06;5059136;28;20057;-83
2021/07/06 12:47:16;;;;;;;3.15;1.58;;;;;;;29.26;31.83;99372.66;5059857;28;20045;-82
2021/07/06 12:49:47;;;;;;;2.20;0.80;;;;;;;29.81;29.36;99415.16;5061293;28;20053;-81
2021/07/06 12:52:15;;;;;;;2.10;0.60;;;;;;;29.71;30.09;99397.09;5064289;28;20392;-82
2021/07/06 12:54:43;;;;;;;1.17;0.70;;;;;;;30.26;28.22;99396.44;5052679;28;20052;-81
2021/07/06 12:57:14;;;;;;;2.40;1.05;;;;;;;29.27;30.00;99405.78;5058949;28;20049;-79
2021/07/06 12:59:43;;;;;;;1.35;0.63;;;;;;;28.88;30.88;99408.06;5059451;28;20068;-82
2021/07/06 13:02:23;;;;;;;2.95;0.90;;;;;;;29.52;29.27;99401.94;5058548;28;20046;-81
2021/07/06 13:04:53;;;;;;;1.98;0.82;;;;;;;29.89;29.81;99405.00;5051706;28;20048;-80
2021/07/06 13:07:28;;;;;;;1.60;0.70;;;;;;;29.27;31.22;99389.41;5059392;28;20049;-82
2021/07/06 13:10:06;;;;;;;2.33;0.80;;;;;;;29.90;29.61;99390.16;5059632;28;20061;-80
2021/07/06 13:12:34;;;;;;;2.67;1.00;;;;;;;31.20;27.68;99396.75;5059404;28;20049;-81
2021/07/06 13:15:04;;;;;;;1.45;0.68;;;;;;;31.72;26.89;99405.41;5061561;28;20049;-82
2021/07/06 13:17:31;;;;;;;1.40;1.00;;;;;;;29.43;29.38;99410.50;5059465;28;20048;-80
2021/07/06 13:20:04;;;;;;;2.38;0.63;;;;;;;29.01;30.80;99408.78;5058193;28;20068;-78
2021/07/06 13:22:32;;;;;;;1.42;0.60;;;;;;;28.62;31.70;99413.13;5054011;28;20467;-78
2021/07/06 13:25:00;;;;;;;2.25;0.63;;;;;;;27.94;32.50;99419.91;5055039;28;20060;-79
2021/07/06 13:27:30;;;;;;;2.42;0.52;;;;;;;27.57;33.49;99423.53;5044778;28;20056;-79
2021/07/06 13:29:59;;;;;;;1.88;0.68;;;;;;;27.73;33.51;99407.06;5061976;28;20061;-83
2021/07/06 13:32:28;;;;;;;;;;;;;;;27.80;33.59;99413.81;5060604;28;20418;-81